Terminal Aerodrome Forecast
Issued by NWS Cleveland, OH

Home | Current Version | Previous Version | Graphics & Text | Print | Product List | Glossary On
Versions: 1 2 3 4 5 6 7 8 9 10 11 12 13 14 15 16 17 18
449
FTUS41 KCLE 110522
TAFYNG
TAF
KYNG 110522Z 1106/1206 26010KT 3SM -SHSN OVC025
      TEMPO 1106/1108 26010G18KT 1SM -SN BKN012
     FM110800 27012KT 5SM -SHSN BKN015 OVC025
     FM111000 30010KT P6SM -SHSN BKN025
     FM111500 30012KT P6SM BKN035
     FM112300 23005KT P6SM SCT035=

USA.gov is the U.S. government's official web portal to all federal, state and local government web resources and services.